createdAt,value
2023-01-27T00:01:03.220Z,93.09
2023-01-27T00:03:30.723Z,93.26
2023-01-27T00:06:01.415Z,92.99
2023-01-27T00:08:29.556Z,92.48
2023-01-27T00:11:19.489Z,92.54
2023-01-27T00:13:46.468Z,91.71
2023-01-27T00:16:13.638Z,91.98
2023-01-27T00:18:40.626Z,92.43
2023-01-27T00:21:26.273Z,92.86
2023-01-27T00:24:12.033Z,92.46
2023-01-27T00:26:39.091Z,91.90
2023-01-27T00:29:07.623Z,92.25
2023-01-27T00:31:53.089Z,92.29
2023-01-27T00:34:20.369Z,92.67
2023-01-27T00:36:47.356Z,92.73
2023-01-27T00:39:14.991Z,92.88
2023-01-27T00:41:44.421Z,93.00
2023-01-27T00:44:13.469Z,92.77
2023-01-27T00:46:41.655Z,92.74
2023-01-27T00:49:10.677Z,93.05
2023-01-27T00:51:38.007Z,93.19
2023-01-27T00:54:05.745Z,93.83
2023-01-27T00:56:33.376Z,93.75
2023-01-27T00:59:00.643Z,93.46
2023-01-27T01:01:27.982Z,93.39
2023-01-27T01:03:55.297Z,92.74
2023-01-27T01:06:22.456Z,92.40
2023-01-27T01:08:51.463Z,92.65
2023-01-27T01:11:21.672Z,92.86
2023-01-27T01:13:49.402Z,93.06
2023-01-27T01:16:20.142Z,93.21
2023-01-27T01:18:47.436Z,93.51
2023-01-27T01:21:14.883Z,94.00
2023-01-27T01:23:44.273Z,93.64
2023-01-27T01:26:14.510Z,93.46
2023-01-27T01:28:41.938Z,93.20
2023-01-27T01:31:12.485Z,92.89
2023-01-27T01:33:39.746Z,92.68
2023-01-27T01:36:08.675Z,93.08
2023-01-27T01:38:36.710Z,93.35
2023-01-27T01:41:05.477Z,93.16
2023-01-27T01:43:32.953Z,92.85
2023-01-27T01:46:01.503Z,93.04
2023-01-27T01:48:34.707Z,92.53
2023-01-27T01:51:22.864Z,92.79
2023-01-27T01:53:49.764Z,91.89
2023-01-27T01:56:32.427Z,91.78
2023-01-27T01:59:04.050Z,91.70
2023-01-27T02:01:31.080Z,91.78
2023-01-27T02:04:05.530Z,92.18
2023-01-27T02:06:45.948Z,91.78
2023-01-27T02:09:14.903Z,91.80
2023-01-27T02:11:42.848Z,91.97
2023-01-27T02:14:13.364Z,92.63
2023-01-27T02:16:41.072Z,92.80
2023-01-27T02:19:14.871Z,93.36
2023-01-27T02:21:42.560Z,93.61
2023-01-27T02:24:12.978Z,94.32
2023-01-27T02:26:44.425Z,95.04
2023-01-27T02:29:14.208Z,94.92
2023-01-27T02:31:43.097Z,95.29
2023-01-27T02:34:24.071Z,95.37
2023-01-27T02:36:57.977Z,95.59
2023-01-27T02:39:31.436Z,95.62
2023-01-27T02:42:00.774Z,95.59
2023-01-27T02:44:27.784Z,95.52
2023-01-27T02:46:54.771Z,96.41
2023-01-27T02:49:21.998Z,96.30
2023-01-27T02:51:49.511Z,96.96
2023-01-27T02:54:16.905Z,96.73
2023-01-27T02:56:45.715Z,96.51
2023-01-27T02:59:16.895Z,96.59
2023-01-27T03:01:46.876Z,96.42
2023-01-27T03:04:15.848Z,96.34
2023-01-27T03:06:44.336Z,96.22
2023-01-27T03:09:11.364Z,95.67
2023-01-27T03:11:56.948Z,95.17
2023-01-27T03:14:43.795Z,94.99
2023-01-27T03:17:29.465Z,94.62
2023-01-27T03:19:57.285Z,94.77
2023-01-27T03:22:26.268Z,94.64
2023-01-27T03:24:54.349Z,94.16
2023-01-27T03:27:21.668Z,93.63
2023-01-27T03:30:09.765Z,94.03
2023-01-27T03:32:37.735Z,94.05
2023-01-27T03:35:34.380Z,94.06
2023-01-27T03:38:21.097Z,94.13
2023-01-27T03:41:06.612Z,94.13
2023-01-27T03:43:52.602Z,94.49
2023-01-27T03:46:22.370Z,95.25
2023-01-27T03:48:54.966Z,95.30
2023-01-27T03:51:24.770Z,95.81
2023-01-27T03:53:52.117Z,96.38
2023-01-27T03:56:21.829Z,96.73
2023-01-27T03:58:50.652Z,97.25
2023-01-27T04:01:22.218Z,97.45
2023-01-27T04:04:09.091Z,97.54
2023-01-27T04:06:55.160Z,97.63
2023-01-27T04:09:36.976Z,97.71
2023-01-27T04:12:06.153Z,97.78
2023-01-27T04:14:43.336Z,97.36
2023-01-27T04:17:17.165Z,97.09
2023-01-27T04:19:45.130Z,96.54
2023-01-27T04:22:31.661Z,96.14
2023-01-27T04:24:58.878Z,95.47
2023-01-27T04:27:26.503Z,96.10
2023-01-27T04:29:53.964Z,96.21
2023-01-27T04:32:21.012Z,95.87
2023-01-27T04:34:48.071Z,95.64
2023-01-27T04:37:15.260Z,95.08
2023-01-27T04:39:42.505Z,94.48
2023-01-27T04:42:09.548Z,94.45
2023-01-27T04:44:36.689Z,94.12
2023-01-27T04:47:04.277Z,93.84
2023-01-27T04:49:31.472Z,94.25
2023-01-27T04:51:58.586Z,94.21
2023-01-27T04:54:25.782Z,94.18
2023-01-27T04:57:01.296Z,93.74
2023-01-27T04:59:28.524Z,93.52
2023-01-27T05:01:55.920Z,93.73
2023-01-27T05:04:23.987Z,93.33
2023-01-27T05:06:50.822Z,93.13
2023-01-27T05:09:17.892Z,92.89
2023-01-27T05:11:45.875Z,92.59
2023-01-27T05:14:14.172Z,92.15
2023-01-27T05:16:41.460Z,91.35
2023-01-27T05:19:09.288Z,91.40
2023-01-27T05:21:36.399Z,92.05
2023-01-27T05:24:03.705Z,92.42
2023-01-27T05:26:31.109Z,92.69
2023-01-27T05:28:59.163Z,92.43
2023-01-27T05:31:29.388Z,92.84
2023-01-27T05:33:58.773Z,92.96
2023-01-27T05:36:26.604Z,92.85
2023-01-27T05:38:55.170Z,93.22
2023-01-27T05:41:22.313Z,93.71
2023-01-27T05:43:53.851Z,93.82
2023-01-27T05:46:26.213Z,94.51
2023-01-27T05:48:55.964Z,94.56
2023-01-27T05:51:24.544Z,94.59
2023-01-27T05:53:51.691Z,95.07
2023-01-27T05:56:19.874Z,95.08
2023-01-27T05:58:47.367Z,95.47
2023-01-27T06:01:19.842Z,95.50
2023-01-27T06:03:47.522Z,95.82
2023-01-27T06:06:19.441Z,96.70
2023-01-27T06:08:47.315Z,96.95
2023-01-27T06:11:15.652Z,96.65
2023-01-27T06:13:42.927Z,96.14
2023-01-27T06:16:13.236Z,96.05
2023-01-27T06:18:41.086Z,95.86
2023-01-27T06:21:10.325Z,95.98
2023-01-27T06:23:37.835Z,95.52
2023-01-27T06:26:09.696Z,95.40
2023-01-27T06:28:40.401Z,95.09
2023-01-27T06:31:14.512Z,94.77
2023-01-27T06:33:42.381Z,95.00
2023-01-27T06:36:15.158Z,95.42
2023-01-27T06:38:43.172Z,95.47
2023-01-27T06:41:10.938Z,95.40
2023-01-27T06:43:38.350Z,95.39
2023-01-27T06:46:06.229Z,94.58
2023-01-27T06:48:34.179Z,94.47
2023-01-27T06:51:01.703Z,94.10
2023-01-27T06:53:28.846Z,94.39
2023-01-27T06:55:59.749Z,94.14
2023-01-27T06:58:27.149Z,93.73
2023-01-27T07:00:54.714Z,93.56
2023-01-27T07:03:22.873Z,93.12
2023-01-27T07:05:50.072Z,92.93
2023-01-27T07:08:17.080Z,92.69
2023-01-27T07:10:44.325Z,92.48
2023-01-27T07:13:14.062Z,92.55
2023-01-27T07:15:42.279Z,92.72
2023-01-27T07:18:10.793Z,92.75
2023-01-27T07:20:38.146Z,92.86
2023-01-27T07:23:05.881Z,93.02
2023-01-27T07:25:34.702Z,93.28
2023-01-27T07:28:03.372Z,93.02
2023-01-27T07:30:30.798Z,92.64
2023-01-27T07:33:08.775Z,92.28
2023-01-27T07:35:37.350Z,91.63
2023-01-27T07:38:05.218Z,91.23
2023-01-27T07:40:32.654Z,91.25
2023-01-27T07:43:01.056Z,91.43
2023-01-27T07:45:29.961Z,91.72
2023-01-27T07:48:01.623Z,90.94
2023-01-27T07:50:29.029Z,90.95
2023-01-27T07:53:00.640Z,90.81
2023-01-27T07:55:29.009Z,90.79
2023-01-27T07:57:57.127Z,90.40
2023-01-27T08:00:24.644Z,90.45
2023-01-27T08:02:53.816Z,90.24
2023-01-27T08:05:22.689Z,90.17
2023-01-27T08:07:51.166Z,90.23
2023-01-27T08:10:19.066Z,89.77
2023-01-27T08:12:46.700Z,89.61
2023-01-27T08:15:15.505Z,89.00
2023-01-27T08:17:44.228Z,88.35
2023-01-27T08:20:12.025Z,87.34
2023-01-27T08:22:39.532Z,86.58
2023-01-27T08:25:06.929Z,86.16
2023-01-27T08:27:33.873Z,86.31
2023-01-27T08:30:01.147Z,86.79
2023-01-27T08:32:28.172Z,86.80
2023-01-27T08:34:55.706Z,86.65
2023-01-27T08:37:22.775Z,86.40
2023-01-27T08:39:49.928Z,86.33
2023-01-27T08:42:16.998Z,85.93
2023-01-27T08:44:44.225Z,84.96
2023-01-27T08:47:11.152Z,84.92
2023-01-27T08:49:38.239Z,85.15
2023-01-27T08:52:05.427Z,85.11
2023-01-27T08:54:32.544Z,85.42
2023-01-27T08:56:59.593Z,84.50
2023-01-27T08:59:26.823Z,85.31
2023-01-27T09:01:53.832Z,85.36
2023-01-27T09:04:22.852Z,85.36
2023-01-27T09:06:50.568Z,86.20
2023-01-27T09:09:17.471Z,85.47
2023-01-27T09:11:45.274Z,85.46
2023-01-27T09:14:13.142Z,86.06
2023-01-27T09:16:40.305Z,85.11
2023-01-27T09:19:07.259Z,85.17
2023-01-27T09:21:34.427Z,85.67
2023-01-27T09:24:01.784Z,85.70
2023-01-27T09:26:28.965Z,85.71
2023-01-27T09:28:55.937Z,86.58
2023-01-27T09:31:22.946Z,87.27
2023-01-27T09:33:49.913Z,86.93
2023-01-27T09:36:20.417Z,86.73
2023-01-27T09:39:01.881Z,86.36
2023-01-27T09:41:38.863Z,86.26
2023-01-27T09:44:18.093Z,87.00
2023-01-27T09:46:45.002Z,87.95
2023-01-27T09:49:54.260Z,88.29
2023-01-27T09:52:21.109Z,88.86
2023-01-27T09:55:00.891Z,89.50
2023-01-27T09:57:53.644Z,90.05
2023-01-27T10:00:32.771Z,90.61
2023-01-27T10:03:23.646Z,91.22
2023-01-27T10:06:12.464Z,91.81
2023-01-27T10:09:16.610Z,92.27
2023-01-27T10:12:08.528Z,92.30
2023-01-27T10:15:01.642Z,92.22
2023-01-27T10:17:31.304Z,91.92
2023-01-27T10:20:21.982Z,91.49
2023-01-27T10:22:55.063Z,90.72
2023-01-27T10:25:46.763Z,90.22
2023-01-27T10:28:17.210Z,90.07
2023-01-27T10:30:56.246Z,90.34
2023-01-27T10:33:41.681Z,89.71
2023-01-27T10:36:34.307Z,89.74
2023-01-27T10:39:13.198Z,90.08
2023-01-27T10:41:52.465Z,91.00
2023-01-27T10:44:25.842Z,91.42
2023-01-27T10:47:09.186Z,91.68
2023-01-27T10:49:55.557Z,90.65
2023-01-27T10:52:46.678Z,90.41
2023-01-27T10:55:22.104Z,90.43
2023-01-27T10:58:17.135Z,90.34
2023-01-27T11:01:18.023Z,90.55
2023-01-27T11:03:45.425Z,90.61
2023-01-27T11:06:24.161Z,90.47
2023-01-27T11:08:59.359Z,90.22
2023-01-27T11:11:45.913Z,90.52
2023-01-27T11:14:17.155Z,90.42
2023-01-27T11:16:50.663Z,90.26
2023-01-27T11:19:39.615Z,90.49
2023-01-27T11:22:18.437Z,90.43
2023-01-27T11:24:49.968Z,89.70
2023-01-27T11:27:40.232Z,89.48
2023-01-27T11:30:20.456Z,88.86
2023-01-27T11:33:03.150Z,88.90
2023-01-27T11:35:31.932Z,89.55
2023-01-27T11:38:14.587Z,89.77
2023-01-27T11:40:47.681Z,89.76
2023-01-27T11:43:21.541Z,90.38
2023-01-27T11:45:53.040Z,90.98
2023-01-27T11:48:23.149Z,91.31
2023-01-27T11:50:50.847Z,91.59
2023-01-27T11:53:28.369Z,90.82
2023-01-27T11:56:07.683Z,90.30
2023-01-27T11:58:39.794Z,90.29
2023-01-27T12:01:15.727Z,90.11
2023-01-27T12:03:57.298Z,89.70
2023-01-27T12:06:41.077Z,89.73
2023-01-27T12:09:41.598Z,89.50
2023-01-27T12:12:16.328Z,89.41
2023-01-27T12:14:55.690Z,89.63
2023-01-27T12:17:30.858Z,90.14
2023-01-27T12:20:02.153Z,90.05
2023-01-27T12:22:37.695Z,89.62
2023-01-27T12:25:18.487Z,89.64
2023-01-27T12:27:53.955Z,89.55
2023-01-27T12:30:29.236Z,89.03
2023-01-27T12:32:58.843Z,88.98
2023-01-27T12:35:37.165Z,88.61
2023-01-27T12:38:13.195Z,88.68
2023-01-27T12:40:46.726Z,88.29
2023-01-27T12:43:20.167Z,87.24
2023-01-27T12:46:13.448Z,86.75
2023-01-27T12:48:52.282Z,86.93
2023-01-27T12:51:26.995Z,87.18
2023-01-27T12:54:17.081Z,87.98
2023-01-27T12:56:44.415Z,87.56
2023-01-27T12:59:17.177Z,87.19
2023-01-27T13:01:56.597Z,87.26
2023-01-27T13:04:27.155Z,87.60
2023-01-27T13:07:00.418Z,87.75
2023-01-27T13:09:46.153Z,88.17
2023-01-27T13:12:24.286Z,88.92
2023-01-27T13:14:58.584Z,89.39
2023-01-27T13:17:34.946Z,90.51
2023-01-27T13:20:08.554Z,90.32
2023-01-27T13:22:44.187Z,90.43
2023-01-27T13:25:28.276Z,91.03
2023-01-27T13:28:00.040Z,91.14
2023-01-27T13:30:47.412Z,90.72
2023-01-27T13:33:26.986Z,90.48
2023-01-27T13:36:10.483Z,91.49
2023-01-27T13:38:49.742Z,92.57
2023-01-27T13:41:31.536Z,91.90
2023-01-27T13:44:25.528Z,92.00
2023-01-27T13:47:01.890Z,91.49
2023-01-27T13:49:38.468Z,91.91
2023-01-27T13:52:08.078Z,91.99
2023-01-27T13:54:38.591Z,92.24
2023-01-27T13:57:24.896Z,91.58
2023-01-27T14:00:14.440Z,91.49
2023-01-27T14:02:54.945Z,91.70
2023-01-27T14:05:34.024Z,91.28
2023-01-27T14:08:13.398Z,90.63
2023-01-27T14:11:10.491Z,91.25
2023-01-27T14:13:57.918Z,91.29
2023-01-27T14:16:54.400Z,91.19
2023-01-27T14:19:40.665Z,91.48
2023-01-27T14:22:35.055Z,91.14
2023-01-27T14:25:20.164Z,91.09
2023-01-27T14:30:25.051Z,90.01
2023-01-27T14:32:59.933Z,91.11
2023-01-27T14:35:48.897Z,91.51
2023-01-27T14:38:31.041Z,91.54
2023-01-27T14:41:15.710Z,91.40
2023-01-27T14:43:53.985Z,91.57
2023-01-27T14:46:41.505Z,90.90
2023-01-27T14:49:35.364Z,90.95
2023-01-27T14:52:23.975Z,91.32
2023-01-27T14:55:05.877Z,91.14
2023-01-27T14:57:57.707Z,91.57
2023-01-27T15:00:31.499Z,91.80
2023-01-27T15:03:31.005Z,91.71
2023-01-27T15:06:11.762Z,91.53
2023-01-27T15:08:48.224Z,91.83
2023-01-27T15:11:33.925Z,92.15
2023-01-27T15:14:35.645Z,91.73
2023-01-27T15:17:34.130Z,91.68
2023-01-27T15:20:39.266Z,91.59
2023-01-27T15:23:21.360Z,91.74
2023-01-27T15:25:53.778Z,91.73
2023-01-27T15:28:25.944Z,91.73
2023-01-27T15:31:14.520Z,91.96
2023-01-27T15:33:51.239Z,91.90
2023-01-27T15:36:27.731Z,92.03
2023-01-27T15:39:10.483Z,92.40
2023-01-27T15:41:50.724Z,92.05
2023-01-27T15:44:19.040Z,92.35
2023-01-27T15:46:50.921Z,92.26
2023-01-27T15:49:30.395Z,92.34
2023-01-27T15:52:12.420Z,92.42
2023-01-27T15:54:42.804Z,92.69
2023-01-27T15:57:29.089Z,92.71
2023-01-27T16:00:05.558Z,92.83
2023-01-27T16:02:44.569Z,92.95
2023-01-27T16:05:25.881Z,92.89
2023-01-27T16:07:58.322Z,92.92
2023-01-27T16:10:30.883Z,92.66
2023-01-27T16:13:22.385Z,92.53
2023-01-27T16:16:09.903Z,91.77
2023-01-27T16:19:15.530Z,91.73
2023-01-27T16:22:05.314Z,91.61
2023-01-27T16:25:10.348Z,91.66
2023-01-27T16:27:52.008Z,91.69
2023-01-27T16:30:24.951Z,91.96
2023-01-27T16:33:19.161Z,91.53
2023-01-27T16:35:53.454Z,91.54
2023-01-27T16:38:31.969Z,91.36
2023-01-27T16:41:03.166Z,91.31
2023-01-27T16:43:43.730Z,91.24
2023-01-27T16:46:41.882Z,91.21
2023-01-27T16:49:18.863Z,91.13
2023-01-27T16:51:46.440Z,91.53
2023-01-27T16:54:25.455Z,91.27
2023-01-27T16:56:52.809Z,91.20
2023-01-27T16:59:26.740Z,91.38
2023-01-27T17:02:01.407Z,91.42
2023-01-27T17:04:32.068Z,91.66
2023-01-27T17:07:07.194Z,91.84
2023-01-27T17:09:41.859Z,91.63
2023-01-27T17:12:28.455Z,91.87
2023-01-27T17:14:56.128Z,91.70
2023-01-27T17:17:25.617Z,91.50
2023-01-27T17:20:01.211Z,91.54
2023-01-27T17:22:37.127Z,91.52
2023-01-27T17:25:14.920Z,91.52
2023-01-27T17:27:44.003Z,91.81
2023-01-27T17:30:25.051Z,91.58
2023-01-27T17:33:01.895Z,90.93
2023-01-27T17:35:33.422Z,90.67
2023-01-27T17:38:49.355Z,90.20
2023-01-27T17:41:25.210Z,90.25
2023-01-27T17:43:53.313Z,90.12
2023-01-27T17:46:23.854Z,89.83
2023-01-27T17:49:05.573Z,89.41
2023-01-27T17:51:37.418Z,89.04
2023-01-27T17:54:31.484Z,88.95
2023-01-27T17:57:19.633Z,88.96
2023-01-27T17:59:54.034Z,88.78
2023-01-27T18:02:34.617Z,89.21
2023-01-27T18:05:10.556Z,89.15
2023-01-27T18:07:38.046Z,89.33
2023-01-27T18:10:23.750Z,89.22
2023-01-27T18:12:51.668Z,89.24
2023-01-27T18:15:43.092Z,89.01
2023-01-27T18:18:19.407Z,88.71
2023-01-27T18:21:01.538Z,88.68
2023-01-27T18:23:35.197Z,88.65
2023-01-27T18:26:24.940Z,88.93
2023-01-27T18:28:56.644Z,88.53
2023-01-27T18:31:27.580Z,88.67
2023-01-27T18:34:00.705Z,88.93
2023-01-27T18:36:35.405Z,89.04
2023-01-27T18:39:24.329Z,89.41
2023-01-27T18:41:51.562Z,89.97
2023-01-27T18:44:19.151Z,90.25
2023-01-27T18:46:46.647Z,90.27
2023-01-27T18:49:13.585Z,90.27
2023-01-27T18:51:41.210Z,90.60
2023-01-27T18:54:12.288Z,90.27
2023-01-27T18:56:39.390Z,90.60
2023-01-27T18:59:06.347Z,90.67
2023-01-27T19:01:35.151Z,90.82
2023-01-27T19:04:02.232Z,90.70
2023-01-27T19:06:30.431Z,90.72
2023-01-27T19:08:57.686Z,90.70
2023-01-27T19:11:24.722Z,90.17
2023-01-27T19:13:51.621Z,90.09
2023-01-27T19:16:18.780Z,90.04
2023-01-27T19:18:45.906Z,90.50
2023-01-27T19:21:14.814Z,90.50
2023-01-27T19:23:45.885Z,90.69
2023-01-27T19:26:18.955Z,90.67
2023-01-27T19:28:52.746Z,90.89
2023-01-27T19:31:21.343Z,91.67
2023-01-27T19:33:48.514Z,92.05
2023-01-27T19:36:44.097Z,92.27
2023-01-27T19:39:17.613Z,92.44
2023-01-27T19:41:48.021Z,92.38
2023-01-27T19:44:15.688Z,92.48
2023-01-27T19:46:43.399Z,92.77
2023-01-27T19:49:16.906Z,92.51
2023-01-27T19:51:43.999Z,92.66
2023-01-27T19:54:11.408Z,92.99
2023-01-27T19:56:38.653Z,92.86
2023-01-27T19:59:05.736Z,93.34
2023-01-27T20:01:32.911Z,93.77
2023-01-27T20:03:59.920Z,94.01
2023-01-27T20:06:30.703Z,94.72
2023-01-27T20:09:00.072Z,95.26
2023-01-27T20:11:37.570Z,95.74
2023-01-27T20:14:09.514Z,95.88
2023-01-27T20:16:36.548Z,96.32
2023-01-27T20:19:04.244Z,96.31
2023-01-27T20:21:32.400Z,96.73
2023-01-27T20:23:59.448Z,96.72
2023-01-27T20:26:27.071Z,96.93
2023-01-27T20:28:54.123Z,97.18
2023-01-27T20:31:24.963Z,97.50
2023-01-27T20:33:52.454Z,97.12
2023-01-27T20:36:22.677Z,96.75
2023-01-27T20:38:50.319Z,97.23
2023-01-27T20:41:20.951Z,96.95
2023-01-27T20:43:48.736Z,96.97
2023-01-27T20:46:18.181Z,96.82
2023-01-27T20:48:45.353Z,96.49
2023-01-27T20:51:14.402Z,96.22
2023-01-27T20:53:45.636Z,95.93
2023-01-27T20:56:14.965Z,96.12
2023-01-27T20:58:42.051Z,95.75
2023-01-27T21:01:11.880Z,95.32
2023-01-27T21:03:40.077Z,95.28
2023-01-27T21:06:09.209Z,95.07
2023-01-27T21:08:37.093Z,94.74
2023-01-27T21:11:06.557Z,94.47
2023-01-27T21:13:33.719Z,94.09
2023-01-27T21:16:01.803Z,94.33
2023-01-27T21:18:29.645Z,94.18
2023-01-27T21:20:59.809Z,94.73
2023-01-27T21:23:31.489Z,94.52
2023-01-27T21:26:06.289Z,94.27
2023-01-27T21:28:34.035Z,93.86
2023-01-27T21:31:08.948Z,93.63
2023-01-27T21:33:37.671Z,92.92
2023-01-27T21:36:06.187Z,92.97
2023-01-27T21:38:33.746Z,92.88
2023-01-27T21:41:09.863Z,92.23
2023-01-27T21:43:55.309Z,92.40
2023-01-27T21:46:22.844Z,92.11
2023-01-27T21:48:50.030Z,91.86
2023-01-27T21:51:17.033Z,92.13
2023-01-27T21:53:44.265Z,91.99
2023-01-27T21:56:11.862Z,91.42
2023-01-27T21:58:39.034Z,91.15
2023-01-27T22:01:07.570Z,91.47
2023-01-27T22:03:36.002Z,91.43
2023-01-27T22:06:07.213Z,90.85
2023-01-27T22:08:37.194Z,90.33
2023-01-27T22:11:11.563Z,90.95
2023-01-27T22:13:39.485Z,91.14
2023-01-27T22:16:07.139Z,90.61
2023-01-27T22:18:34.677Z,90.69
2023-01-27T22:21:02.309Z,90.43
2023-01-27T22:23:29.334Z,89.83
2023-01-27T22:25:56.366Z,90.06
2023-01-27T22:28:24.348Z,90.29
2023-01-27T22:30:51.457Z,90.50
2023-01-27T22:33:19.164Z,90.88
2023-01-27T22:35:46.017Z,90.81
2023-01-27T22:38:12.974Z,90.78
2023-01-27T22:40:40.015Z,90.79
2023-01-27T22:43:10.158Z,90.05
2023-01-27T22:45:40.665Z,90.12
2023-01-27T22:48:08.856Z,89.75
2023-01-27T22:50:37.102Z,90.19
2023-01-27T22:53:05.518Z,90.22
2023-01-27T22:55:32.706Z,90.24
2023-01-27T22:57:59.778Z,90.33
2023-01-27T23:00:27.107Z,90.87
2023-01-27T23:02:54.459Z,91.10
2023-01-27T23:05:21.337Z,90.92
2023-01-27T23:07:48.302Z,90.89
2023-01-27T23:10:19.700Z,90.83
2023-01-27T23:12:47.113Z,90.90
2023-01-27T23:15:14.398Z,90.90
2023-01-27T23:17:41.815Z,90.64
2023-01-27T23:20:09.173Z,90.71
2023-01-27T23:22:36.662Z,90.49
2023-01-27T23:25:03.835Z,90.71
2023-01-27T23:27:30.869Z,90.82
2023-01-27T23:29:57.790Z,90.76
2023-01-27T23:32:24.997Z,90.99
2023-01-27T23:34:52.246Z,91.04
2023-01-27T23:37:19.263Z,91.09
2023-01-27T23:39:48.846Z,91.42
2023-01-27T23:42:17.463Z,91.40
2023-01-27T23:44:45.048Z,91.50
2023-01-27T23:47:12.914Z,91.98
2023-01-27T23:49:39.956Z,91.57
2023-01-27T23:52:07.035Z,91.54
2023-01-27T23:54:34.467Z,91.01
2023-01-27T23:57:01.398Z,91.32
2023-01-27T23:59:28.373Z,91.26
